createdAt,value
2022-12-26T00:00:54.333Z,99.90
2022-12-26T00:03:18.929Z,99.90
2022-12-26T00:05:43.624Z,99.90
2022-12-26T00:08:08.370Z,99.90
2022-12-26T00:10:34.187Z,99.90
2022-12-26T00:13:38.108Z,99.90
2022-12-26T00:15:43.541Z,99.90
2022-12-26T00:18:08.043Z,99.90
2022-12-26T00:20:32.673Z,99.90
2022-12-26T00:22:56.984Z,99.90
2022-12-26T00:25:21.417Z,99.90
2022-12-26T00:27:47.245Z,99.90
2022-12-26T00:30:12.906Z,99.90
2022-12-26T00:32:37.210Z,99.90
2022-12-26T00:35:02.047Z,99.90
2022-12-26T00:37:27.493Z,99.90
2022-12-26T00:39:51.926Z,99.90
2022-12-26T00:42:16.352Z,99.90
2022-12-26T00:44:42.304Z,99.90
2022-12-26T00:47:06.849Z,99.90
2022-12-26T00:50:13.633Z,99.90
2022-12-26T00:52:15.941Z,99.90
2022-12-26T00:54:40.208Z,99.90
2022-12-26T00:57:05.520Z,99.90
2022-12-26T00:59:31.240Z,99.90
2022-12-26T01:01:57.233Z,99.90
2022-12-26T01:04:22.145Z,99.90
2022-12-26T01:06:46.721Z,99.90
2022-12-26T01:09:12.289Z,99.90
2022-12-26T01:11:42.491Z,99.90
2022-12-26T01:14:07.842Z,99.90
2022-12-26T01:16:32.428Z,99.90
2022-12-26T01:19:00.267Z,99.90
2022-12-26T01:21:25.812Z,99.90
2022-12-26T01:23:50.313Z,99.90
2022-12-26T01:26:19.925Z,99.90
2022-12-26T01:28:44.946Z,99.90
2022-12-26T01:31:09.430Z,99.90
2022-12-26T01:33:34.608Z,99.90
2022-12-26T01:36:01.051Z,99.90
2022-12-26T01:38:25.883Z,99.90
2022-12-26T01:41:11.036Z,99.90
2022-12-26T01:43:53.623Z,99.90
2022-12-26T01:46:19.013Z,99.90
2022-12-26T01:48:43.611Z,99.90
2022-12-26T01:51:10.012Z,99.90
2022-12-26T01:53:36.647Z,99.90
2022-12-26T01:56:05.040Z,99.90
2022-12-26T01:58:34.154Z,99.90
2022-12-26T02:00:58.659Z,99.90
2022-12-26T02:03:41.654Z,99.90
2022-12-26T02:06:06.724Z,99.90
2022-12-26T02:08:35.991Z,99.90
2022-12-26T02:11:06.320Z,99.90
2022-12-26T02:13:31.859Z,99.90
2022-12-26T02:15:56.774Z,99.90
2022-12-26T02:18:21.255Z,99.90
2022-12-26T02:20:59.710Z,99.90
2022-12-26T02:23:51.642Z,99.90
2022-12-26T02:26:58.222Z,99.90
2022-12-26T02:30:10.630Z,99.90
2022-12-26T02:33:07.320Z,99.90
2022-12-26T02:36:01.086Z,99.90
2022-12-26T02:38:37.041Z,99.90
2022-12-26T02:41:12.808Z,99.90
2022-12-26T02:43:47.724Z,99.90
2022-12-26T02:46:37.217Z,99.90
2022-12-26T02:49:13.758Z,99.90
2022-12-26T02:52:09.525Z,99.90
2022-12-26T02:54:57.636Z,99.90
2022-12-26T02:57:42.441Z,99.90
2022-12-26T03:00:27.759Z,99.90
2022-12-26T03:03:12.802Z,99.90
2022-12-26T03:06:04.887Z,99.90
2022-12-26T03:08:51.823Z,99.90
2022-12-26T03:11:34.087Z,99.90
2022-12-26T03:14:08.360Z,99.90
2022-12-26T03:16:50.652Z,99.90
2022-12-26T03:19:16.630Z,99.90
2022-12-26T03:21:46.274Z,99.90
2022-12-26T03:24:13.685Z,99.90
2022-12-26T03:26:40.595Z,99.90
2022-12-26T03:29:19.361Z,99.90
2022-12-26T03:31:43.851Z,99.90
2022-12-26T03:34:26.473Z,99.90
2022-12-26T03:37:24.591Z,99.90
2022-12-26T03:40:37.513Z,99.90
2022-12-26T03:43:24.634Z,99.90
2022-12-26T03:46:13.048Z,99.90
2022-12-26T03:49:04.809Z,99.90
2022-12-26T03:51:52.966Z,99.90
2022-12-26T03:54:43.688Z,99.90
2022-12-26T03:57:29.788Z,99.90
2022-12-26T04:00:16.966Z,99.90
2022-12-26T04:03:02.616Z,99.90
2022-12-26T04:05:45.299Z,99.90
2022-12-26T04:08:43.535Z,99.90
2022-12-26T04:11:37.915Z,99.90
2022-12-26T04:14:25.293Z,99.90
2022-12-26T04:17:13.157Z,99.90
2022-12-26T04:20:01.283Z,99.90
2022-12-26T04:22:55.196Z,99.90
2022-12-26T04:25:49.352Z,99.90
2022-12-26T04:28:34.580Z,99.90
2022-12-26T04:31:23.878Z,99.90
2022-12-26T04:34:11.825Z,99.90
2022-12-26T04:37:00.249Z,99.90
2022-12-26T04:39:49.087Z,99.90
2022-12-26T04:42:31.847Z,99.90
2022-12-26T04:44:58.764Z,99.90
2022-12-26T04:47:23.973Z,99.90
2022-12-26T04:50:05.795Z,99.90
2022-12-26T04:52:51.641Z,99.90
2022-12-26T04:55:16.531Z,99.90
2022-12-26T04:57:40.852Z,99.90
2022-12-26T05:00:07.956Z,99.90
2022-12-26T05:02:49.758Z,99.90
2022-12-26T05:05:31.812Z,99.90
2022-12-26T05:08:13.444Z,99.90
2022-12-26T05:10:38.235Z,99.90
2022-12-26T05:13:02.759Z,99.90
2022-12-26T05:15:28.668Z,99.90
2022-12-26T05:18:10.300Z,99.90
2022-12-26T05:20:54.558Z,99.90
2022-12-26T05:23:38.768Z,99.90
2022-12-26T05:26:21.268Z,99.90
2022-12-26T05:28:46.006Z,99.90
2022-12-26T05:31:13.486Z,99.90
2022-12-26T05:33:55.084Z,99.90
2022-12-26T05:36:21.243Z,99.90
2022-12-26T05:38:45.688Z,99.90
2022-12-26T05:41:10.258Z,99.90
2022-12-26T05:43:34.552Z,99.90
2022-12-26T05:45:59.000Z,99.90
2022-12-26T05:48:25.014Z,99.90
2022-12-26T05:50:49.476Z,99.90
2022-12-26T05:53:14.242Z,99.90
2022-12-26T05:55:38.631Z,99.90
2022-12-26T05:58:03.379Z,99.90
2022-12-26T06:00:27.959Z,99.90
2022-12-26T06:02:52.629Z,99.90
2022-12-26T06:05:18.852Z,99.90
2022-12-26T06:07:43.244Z,99.90
2022-12-26T06:10:08.547Z,99.90
2022-12-26T06:12:33.066Z,99.90
2022-12-26T06:14:57.393Z,99.90
2022-12-26T06:17:21.826Z,99.90
2022-12-26T06:19:47.083Z,99.90
2022-12-26T06:22:13.116Z,99.90
2022-12-26T06:24:37.414Z,99.90
2022-12-26T06:27:02.150Z,99.50
2022-12-26T06:29:26.598Z,98.00
2022-12-26T06:31:51.093Z,98.00
2022-12-26T06:34:15.486Z,97.20
2022-12-26T06:36:39.981Z,96.20
2022-12-26T06:39:05.763Z,96.60
2022-12-26T06:41:30.213Z,95.50
2022-12-26T06:43:55.894Z,95.70
2022-12-26T06:46:22.369Z,96.00
2022-12-26T06:48:47.015Z,97.60
2022-12-26T06:51:13.671Z,96.60
2022-12-26T06:53:38.243Z,96.60
2022-12-26T06:56:09.615Z,96.80
2022-12-26T06:58:34.084Z,96.60
2022-12-26T07:01:04.827Z,96.20
2022-12-26T07:03:29.322Z,95.20
2022-12-26T07:05:54.442Z,96.20
2022-12-26T07:08:22.347Z,96.60
2022-12-26T07:10:46.719Z,95.40
2022-12-26T07:13:12.736Z,95.30
2022-12-26T07:15:37.205Z,94.50
2022-12-26T07:18:02.114Z,94.00
2022-12-26T07:20:26.569Z,93.30
2022-12-26T07:22:51.056Z,93.20
2022-12-26T07:25:15.636Z,92.70
2022-12-26T07:27:40.039Z,92.80
2022-12-26T07:30:06.795Z,93.00
2022-12-26T07:32:31.267Z,93.30
2022-12-26T07:34:55.600Z,93.70
2022-12-26T07:37:20.067Z,94.30
2022-12-26T07:39:44.415Z,94.40
2022-12-26T07:42:08.889Z,94.80
2022-12-26T07:44:34.731Z,96.20
2022-12-26T07:47:09.343Z,96.90
2022-12-26T07:49:33.921Z,98.50
2022-12-26T07:51:58.863Z,99.90
2022-12-26T07:54:23.522Z,99.90
2022-12-26T07:56:47.906Z,99.90
2022-12-26T07:59:15.893Z,99.90
2022-12-26T08:01:40.335Z,99.90
2022-12-26T08:04:06.574Z,99.90
2022-12-26T08:06:32.064Z,99.90
2022-12-26T08:08:56.515Z,99.90
2022-12-26T08:11:23.753Z,99.90
2022-12-26T08:13:48.207Z,99.90
2022-12-26T08:16:14.917Z,99.90
2022-12-26T08:18:39.545Z,99.90
2022-12-26T08:21:05.328Z,99.90
2022-12-26T08:23:29.918Z,99.90
2022-12-26T08:25:54.238Z,99.90
2022-12-26T08:28:18.782Z,99.90
2022-12-26T08:30:43.598Z,99.90
2022-12-26T08:33:08.139Z,99.90
2022-12-26T08:35:32.496Z,99.90
2022-12-26T08:37:58.611Z,99.90
2022-12-26T08:40:41.797Z,99.90
2022-12-26T08:43:39.151Z,99.90
2022-12-26T08:45:59.727Z,99.90
2022-12-26T08:48:24.150Z,99.90
2022-12-26T08:50:48.469Z,99.90
2022-12-26T08:53:14.316Z,99.90
2022-12-26T08:55:38.683Z,99.90
2022-12-26T08:58:03.271Z,99.90
2022-12-26T09:00:27.667Z,99.70
2022-12-26T09:02:52.181Z,98.70
2022-12-26T09:05:16.755Z,98.50
2022-12-26T09:07:41.385Z,98.70
2022-12-26T09:10:09.323Z,98.60
2022-12-26T09:12:33.689Z,98.60
2022-12-26T09:14:59.664Z,98.20
2022-12-26T09:17:26.664Z,98.30
2022-12-26T09:19:51.008Z,98.10
2022-12-26T09:22:35.188Z,96.70
2022-12-26T09:24:59.686Z,97.00
2022-12-26T09:27:25.407Z,95.20
2022-12-26T09:29:49.926Z,94.90
2022-12-26T09:32:14.234Z,95.10
2022-12-26T09:34:38.809Z,94.90
2022-12-26T09:37:03.270Z,94.30
2022-12-26T09:39:28.891Z,93.70
2022-12-26T09:42:03.661Z,93.90
2022-12-26T09:44:52.311Z,93.30
2022-12-26T09:47:28.964Z,93.20
2022-12-26T09:49:59.014Z,93.50
2022-12-26T09:52:27.059Z,93.30
2022-12-26T09:54:54.165Z,93.70
2022-12-26T09:57:21.451Z,94.10
2022-12-26T09:59:54.284Z,93.40
2022-12-26T10:02:20.063Z,92.90
2022-12-26T10:04:45.075Z,93.20
2022-12-26T10:07:20.998Z,93.10
2022-12-26T10:09:57.162Z,93.20
2022-12-26T10:12:52.516Z,92.70
2022-12-26T10:15:35.876Z,93.10
2022-12-26T10:18:09.240Z,93.10
2022-12-26T10:20:46.805Z,92.70
2022-12-26T10:23:33.069Z,92.60
2022-12-26T10:26:10.035Z,92.60
2022-12-26T10:28:43.778Z,92.20
2022-12-26T10:31:16.836Z,92.10
2022-12-26T10:33:49.409Z,91.90
2022-12-26T10:36:22.474Z,91.30
2022-12-26T10:38:49.795Z,91.50
2022-12-26T10:41:21.573Z,91.30
2022-12-26T10:43:46.046Z,91.00
2022-12-26T10:46:35.944Z,91.00
2022-12-26T10:49:01.867Z,91.00
2022-12-26T10:51:27.443Z,91.10
2022-12-26T10:53:53.899Z,91.00
2022-12-26T10:56:19.807Z,90.90
2022-12-26T10:58:46.872Z,90.80
2022-12-26T11:01:35.807Z,91.00
2022-12-26T11:04:01.748Z,91.00
2022-12-26T11:06:29.778Z,91.00
2022-12-26T11:08:54.824Z,91.20
2022-12-26T11:11:23.815Z,91.30
2022-12-26T11:13:50.891Z,91.60
2022-12-26T11:16:25.049Z,91.60
2022-12-26T11:18:55.036Z,91.40
2022-12-26T11:21:23.987Z,91.70
2022-12-26T11:23:49.475Z,91.80
2022-12-26T11:26:23.167Z,91.70
2022-12-26T11:28:47.627Z,91.50
2022-12-26T11:31:27.896Z,91.40
2022-12-26T11:33:54.191Z,91.10
2022-12-26T11:36:22.189Z,91.20
2022-12-26T11:38:54.417Z,91.20
2022-12-26T11:41:33.426Z,91.40
2022-12-26T11:44:00.655Z,91.80
2022-12-26T11:46:35.225Z,92.10
2022-12-26T11:49:01.428Z,91.90
2022-12-26T11:51:37.226Z,91.70
2022-12-26T11:54:25.321Z,91.70
2022-12-26T11:56:50.351Z,92.10
2022-12-26T11:59:20.143Z,91.70
2022-12-26T12:01:44.611Z,91.90
2022-12-26T12:04:10.535Z,91.80
2022-12-26T12:06:54.380Z,91.60
2022-12-26T12:09:27.328Z,92.00
2022-12-26T12:12:04.077Z,92.10
2022-12-26T12:14:49.485Z,91.70
2022-12-26T12:17:26.477Z,91.80
2022-12-26T12:20:10.236Z,91.90
2022-12-26T12:23:09.344Z,91.50
2022-12-26T12:25:57.986Z,91.50
2022-12-26T12:28:57.755Z,91.30
2022-12-26T12:31:31.812Z,91.80
2022-12-26T12:34:06.698Z,92.00
2022-12-26T12:36:38.518Z,92.20
2022-12-26T12:39:11.998Z,92.50
2022-12-26T12:41:59.581Z,92.70
2022-12-26T12:44:37.795Z,92.80
2022-12-26T12:47:09.457Z,93.10
2022-12-26T12:49:47.218Z,93.30
2022-12-26T12:52:23.871Z,93.20
2022-12-26T12:55:23.589Z,93.60
2022-12-26T12:57:54.231Z,93.60
2022-12-26T13:00:21.741Z,94.00
2022-12-26T13:02:54.726Z,93.80
2022-12-26T13:05:27.568Z,93.90
2022-12-26T13:07:58.541Z,93.90
2022-12-26T13:10:26.487Z,94.20
2022-12-26T13:12:53.229Z,94.30
2022-12-26T13:15:26.782Z,94.20
2022-12-26T13:17:56.174Z,94.10
2022-12-26T13:20:36.001Z,94.10
2022-12-26T13:23:23.995Z,94.10
2022-12-26T13:26:04.513Z,94.50
2022-12-26T13:28:32.172Z,94.40
2022-12-26T13:30:57.379Z,94.30
2022-12-26T13:33:22.160Z,94.50
2022-12-26T13:35:55.724Z,94.50
2022-12-26T13:38:21.868Z,94.60
2022-12-26T13:40:48.709Z,95.00
2022-12-26T13:43:38.697Z,95.10
2022-12-26T13:46:03.152Z,95.10
2022-12-26T13:49:07.737Z,95.20
2022-12-26T13:51:53.035Z,95.40
2022-12-26T13:54:19.766Z,95.70
2022-12-26T13:57:19.225Z,95.90
2022-12-26T13:59:52.478Z,96.40
2022-12-26T14:03:07.024Z,96.70
2022-12-26T14:05:27.152Z,96.70
2022-12-26T14:07:59.094Z,97.00
2022-12-26T14:10:32.393Z,96.80
2022-12-26T14:13:07.675Z,96.90
2022-12-26T14:15:43.225Z,97.00
2022-12-26T14:18:18.700Z,97.30
2022-12-26T14:20:49.233Z,97.40
2022-12-26T14:23:33.347Z,97.40
2022-12-26T14:26:06.881Z,97.50
2022-12-26T14:28:38.297Z,97.70
2022-12-26T14:31:19.656Z,97.90
2022-12-26T14:33:53.221Z,98.00
2022-12-26T14:36:25.152Z,98.30
2022-12-26T14:38:57.174Z,98.40
2022-12-26T14:41:41.052Z,98.50
2022-12-26T14:44:17.041Z,98.70
2022-12-26T14:46:59.455Z,99.00
2022-12-26T14:49:30.430Z,99.40
2022-12-26T14:52:37.890Z,99.90
2022-12-26T14:55:22.810Z,99.50
2022-12-26T14:57:49.003Z,99.50
2022-12-26T15:00:30.432Z,99.50
2022-12-26T15:03:32.511Z,99.70
2022-12-26T15:06:32.531Z,99.80
2022-12-26T15:09:15.267Z,99.90
2022-12-26T15:12:13.528Z,99.90
2022-12-26T15:15:28.196Z,99.90
2022-12-26T15:18:19.295Z,99.90
2022-12-26T15:21:17.187Z,99.90
2022-12-26T15:24:02.903Z,99.90
2022-12-26T15:27:08.803Z,99.90
2022-12-26T15:29:57.940Z,99.90
2022-12-26T15:32:30.955Z,99.90
2022-12-26T15:35:07.382Z,99.90
2022-12-26T15:37:57.573Z,99.90
2022-12-26T15:40:25.103Z,99.90
2022-12-26T15:43:07.809Z,99.90
2022-12-26T15:45:46.389Z,99.90
2022-12-26T15:48:36.461Z,99.90
2022-12-26T15:51:06.102Z,99.90
2022-12-26T15:53:50.021Z,99.90
2022-12-26T15:56:49.782Z,99.90
2022-12-26T15:59:47.303Z,99.90
2022-12-26T16:02:31.449Z,99.90
2022-12-26T16:05:04.085Z,99.90
2022-12-26T16:07:36.508Z,99.90
2022-12-26T16:10:03.472Z,99.90
2022-12-26T16:12:30.635Z,99.90
2022-12-26T16:15:17.948Z,99.90
2022-12-26T16:17:44.432Z,99.90
2022-12-26T16:20:40.386Z,99.90
2022-12-26T16:23:05.010Z,99.90
2022-12-26T16:25:38.070Z,99.90
2022-12-26T16:28:04.618Z,99.90
2022-12-26T16:30:34.227Z,99.90
2022-12-26T16:33:01.368Z,99.90
2022-12-26T16:35:28.452Z,99.90
2022-12-26T16:37:55.503Z,99.90
2022-12-26T16:40:24.763Z,99.90
2022-12-26T16:43:08.814Z,99.90
2022-12-26T16:45:35.836Z,99.90
2022-12-26T16:48:02.282Z,99.90
2022-12-26T16:50:31.384Z,99.90
2022-12-26T16:53:16.319Z,99.90
2022-12-26T16:55:44.485Z,99.90
2022-12-26T16:58:18.590Z,99.90
2022-12-26T17:00:52.290Z,99.90
2022-12-26T17:03:30.831Z,99.90
2022-12-26T17:05:55.587Z,99.90
2022-12-26T17:08:21.650Z,99.90
2022-12-26T17:10:50.909Z,99.90
2022-12-26T17:13:20.942Z,99.90
2022-12-26T17:15:53.243Z,99.90
2022-12-26T17:18:42.953Z,99.90
2022-12-26T17:21:21.912Z,99.90
2022-12-26T17:23:47.040Z,99.90
2022-12-26T17:26:24.927Z,99.90
2022-12-26T17:28:49.656Z,99.90
2022-12-26T17:31:18.775Z,99.90
2022-12-26T17:33:48.059Z,99.90
2022-12-26T17:39:12.966Z,99.90
2022-12-26T17:41:37.430Z,99.90
2022-12-26T17:44:01.824Z,99.90
2022-12-26T17:46:26.393Z,99.90
2022-12-26T17:48:52.129Z,99.90
2022-12-26T17:51:18.635Z,99.90
2022-12-26T17:53:45.920Z,99.90
2022-12-26T17:56:15.581Z,99.90
2022-12-26T17:58:39.990Z,99.90
2022-12-26T18:01:04.843Z,99.90
2022-12-26T18:03:29.862Z,99.90
2022-12-26T18:05:57.589Z,99.90
2022-12-26T18:08:28.734Z,99.90
2022-12-26T18:10:53.135Z,99.90
2022-12-26T18:13:18.716Z,99.90
2022-12-26T18:15:43.154Z,99.90
2022-12-26T18:18:08.175Z,99.90
2022-12-26T18:20:32.881Z,99.90
2022-12-26T18:22:58.714Z,99.90
2022-12-26T18:25:27.913Z,99.90
2022-12-26T18:27:52.564Z,99.90
2022-12-26T18:30:19.034Z,99.90
2022-12-26T18:32:43.429Z,99.90
2022-12-26T18:35:08.682Z,99.90
2022-12-26T18:37:33.382Z,99.90
2022-12-26T18:39:59.444Z,99.90
2022-12-26T18:42:23.970Z,99.90
2022-12-26T18:44:48.372Z,99.90
2022-12-26T18:47:14.338Z,99.90
2022-12-26T18:49:38.779Z,99.90
2022-12-26T18:52:03.070Z,99.90
2022-12-26T18:54:27.571Z,99.90
2022-12-26T18:56:53.400Z,99.90
2022-12-26T18:59:18.309Z,99.90
2022-12-26T19:01:42.648Z,99.90
2022-12-26T19:04:07.063Z,99.90
2022-12-26T19:06:35.277Z,99.90
2022-12-26T19:09:00.187Z,99.90
2022-12-26T19:11:24.605Z,99.90
2022-12-26T19:13:50.394Z,99.90
2022-12-26T19:16:14.815Z,99.90
2022-12-26T19:18:39.653Z,99.90
2022-12-26T19:21:04.155Z,99.90
2022-12-26T19:23:28.836Z,99.90
2022-12-26T19:25:53.332Z,99.90
2022-12-26T19:28:17.807Z,99.90
2022-12-26T19:30:43.581Z,99.90
2022-12-26T19:33:08.619Z,99.90
2022-12-26T19:35:35.039Z,99.90
2022-12-26T19:38:02.597Z,99.90
2022-12-26T19:40:28.715Z,99.90
2022-12-26T19:42:53.119Z,99.90
2022-12-26T19:45:23.676Z,99.90
2022-12-26T19:47:49.766Z,99.90
2022-12-26T19:50:15.812Z,99.90
2022-12-26T19:52:41.375Z,99.90
2022-12-26T19:55:07.442Z,99.90
2022-12-26T19:57:35.668Z,99.90
2022-12-26T19:59:59.999Z,99.90
2022-12-26T20:02:24.552Z,99.90
2022-12-26T20:04:50.756Z,99.90
2022-12-26T20:07:15.104Z,99.90
2022-12-26T20:09:46.965Z,99.90
2022-12-26T20:12:12.015Z,99.90
2022-12-26T20:14:37.560Z,99.90
2022-12-26T20:17:07.607Z,99.90
2022-12-26T20:19:32.734Z,99.90
2022-12-26T20:21:58.570Z,99.90
2022-12-26T20:24:23.269Z,99.90
2022-12-26T20:26:47.725Z,99.90
2022-12-26T20:29:12.334Z,99.90
2022-12-26T20:31:37.882Z,99.90
2022-12-26T20:34:02.739Z,99.90
2022-12-26T20:36:32.853Z,99.90
2022-12-26T20:39:00.711Z,99.90
2022-12-26T20:41:25.807Z,99.90
2022-12-26T20:43:51.523Z,99.90
2022-12-26T20:46:22.076Z,99.90
2022-12-26T20:48:47.042Z,99.90
2022-12-26T20:51:17.521Z,99.90
2022-12-26T20:53:44.264Z,99.90
2022-12-26T20:56:10.697Z,99.90
2022-12-26T20:58:39.546Z,99.90
2022-12-26T21:01:06.819Z,99.90
2022-12-26T21:03:32.126Z,99.90
2022-12-26T21:05:56.846Z,99.90
2022-12-26T21:08:23.967Z,99.90
2022-12-26T21:10:50.015Z,99.90
2022-12-26T21:13:15.879Z,99.90
2022-12-26T21:15:40.239Z,99.90
2022-12-26T21:18:05.404Z,99.90
2022-12-26T21:20:29.989Z,99.90
2022-12-26T21:22:55.473Z,99.90
2022-12-26T21:25:20.190Z,99.90
2022-12-26T21:27:47.414Z,99.90
2022-12-26T21:30:18.794Z,99.90
2022-12-26T21:32:43.167Z,99.90
2022-12-26T21:35:08.092Z,99.90
2022-12-26T21:37:51.760Z,99.90
2022-12-26T21:40:16.573Z,99.90
2022-12-26T21:42:41.247Z,99.90
2022-12-26T21:45:06.364Z,99.90
2022-12-26T21:47:32.228Z,99.90
2022-12-26T21:49:56.580Z,99.90
2022-12-26T21:52:20.948Z,99.90
2022-12-26T21:55:05.736Z,99.90
2022-12-26T21:57:30.676Z,99.90
2022-12-26T21:59:56.919Z,99.90
2022-12-26T22:02:38.533Z,99.90
2022-12-26T22:05:04.671Z,99.90
2022-12-26T22:07:29.992Z,99.90
2022-12-26T22:09:54.418Z,99.90
2022-12-26T22:12:35.838Z,99.90
2022-12-26T22:15:00.403Z,99.90
2022-12-26T22:17:24.861Z,99.90
2022-12-26T22:19:49.483Z,99.90
2022-12-26T22:22:15.668Z,99.90
2022-12-26T22:24:40.191Z,99.90
2022-12-26T22:27:04.627Z,99.90
2022-12-26T22:29:29.070Z,99.90
2022-12-26T22:31:53.624Z,99.90
2022-12-26T22:34:18.023Z,99.90
2022-12-26T22:36:42.623Z,99.90
2022-12-26T22:39:08.498Z,99.90
2022-12-26T22:41:34.112Z,99.90
2022-12-26T22:43:58.764Z,99.90
2022-12-26T22:46:23.320Z,99.90
2022-12-26T22:48:47.745Z,99.90
2022-12-26T22:51:18.173Z,99.90
2022-12-26T22:53:43.385Z,99.90
2022-12-26T22:56:09.465Z,99.90
2022-12-26T22:58:34.965Z,99.90
2022-12-26T23:01:00.097Z,99.90
2022-12-26T23:03:25.047Z,99.90
2022-12-26T23:05:50.138Z,99.90
2022-12-26T23:08:19.419Z,99.90
2022-12-26T23:10:44.863Z,99.90
2022-12-26T23:13:13.498Z,99.90
2022-12-26T23:15:43.620Z,99.90
2022-12-26T23:18:35.130Z,99.90
2022-12-26T23:21:25.555Z,99.90
2022-12-26T23:23:50.680Z,99.90
2022-12-26T23:26:15.088Z,99.90
2022-12-26T23:29:00.522Z,99.90
2022-12-26T23:31:24.975Z,99.90
2022-12-26T23:33:49.317Z,99.90
2022-12-26T23:36:13.774Z,99.90
2022-12-26T23:38:38.207Z,99.90
2022-12-26T23:41:02.608Z,99.90
2022-12-26T23:43:27.276Z,99.90
2022-12-26T23:45:53.091Z,99.90
2022-12-26T23:48:17.598Z,99.90
2022-12-26T23:50:41.925Z,99.90
2022-12-26T23:53:06.732Z,99.90
2022-12-26T23:55:31.125Z,99.90
2022-12-26T23:57:56.761Z,99.90
